Terminal Aerodrome Forecast
Issued by NWS

Home | Current Version | Previous Version | Text Only | Print | Product List | Glossary On
Versions: 1 2 3 4 5 6 7 8 9 10 11 12 13 14 15
000
FTUS45 KRIW 182300
TAFCPR
TAF
KCPR 182332Z 1900/1924 24014G22KT P6SM SCT120
     FM190100 24011KT P6SM SCT120
     FM191000 24007KT P6SM VCSH BKN100
     FM191600 25011KT P6SM BKN100
     FM192200 29011KT P6SM VCSH BKN100=

USA.gov is the U.S. government's official web portal to all federal, state and local government web resources and services.